Time;durP1;ratioP1;P1;durP2;ratioP2;P2;SDS_P1;SDS_P2;PMS_P1;PMS_P2;Temp;Humidity;BMP_temperature;BMP_pressure;BME280_temperature;BME280_humidity;BME280_pressure;Samples;Min_cycle;Max_cycle;Signal;HPM_P1;HPM_P2
2021/07/31 00:00:49;;;;;;;13.68;10.65;;;21.20;92.70;;;;;;6222133;23;20039;-87
2021/07/31 00:03:14;;;;;;;16.00;11.27;;;21.20;93.00;;;;;;6222176;23;20008;-87
2021/07/31 00:05:40;;;;;;;12.55;11.00;;;21.20;92.80;;;;;;6222275;23;20000;-87
2021/07/31 00:08:06;;;;;;;14.95;11.35;;;21.20;92.80;;;;;;6248821;23;20088;-87
2021/07/31 00:10:31;;;;;;;13.52;10.82;;;21.20;93.10;;;;;;6222435;23;20420;-87
2021/07/31 00:12:57;;;;;;;14.90;12.20;;;21.10;92.90;;;;;;6222613;23;20081;-87
2021/07/31 00:15:23;;;;;;;13.43;11.57;;;21.10;93.00;;;;;;6221985;23;20000;-87
2021/07/31 00:17:49;;;;;;;13.35;10.50;;;21.10;93.10;;;;;;6221880;23;20008;-87
2021/07/31 00:20:14;;;;;;;12.65;11.35;;;21.10;93.10;;;;;;6221966;23;20046;-87
2021/07/31 00:22:42;;;;;;;11.98;10.55;;;21.00;93.20;;;;;;6222043;23;20004;-88
2021/07/31 00:25:08;;;;;;;11.68;10.48;;;21.00;93.20;;;;;;6222551;23;20433;-87
2021/07/31 00:27:34;;;;;;;15.23;12.38;;;21.00;93.30;;;;;;6248696;23;20000;-87
2021/07/31 00:30:00;;;;;;;12.43;11.13;;;21.00;93.40;;;;;;6222114;23;20012;-87
2021/07/31 00:32:25;;;;;;;11.63;10.18;;;20.90;93.40;;;;;;6248612;23;20061;-87
2021/07/31 00:34:51;;;;;;;12.95;11.65;;;20.90;93.40;;;;;;6221855;23;20098;-87
2021/07/31 00:37:16;;;;;;;11.50;10.30;;;20.90;93.50;;;;;;6221695;23;20039;-87
2021/07/31 00:39:42;;;;;;;11.32;10.13;;;20.90;93.50;;;;;;6222084;23;20378;-87
2021/07/31 00:42:09;;;;;;;12.73;10.95;;;20.80;93.60;;;;;;6221919;23;20012;-87
2021/07/31 00:44:36;;;;;;;12.98;11.13;;;20.80;93.60;;;;;;6248545;23;20046;-87
2021/07/31 00:47:03;;;;;;;12.30;10.38;;;20.80;93.70;;;;;;6221712;23;20375;-87
2021/07/31 00:49:34;;;;;;;12.18;10.57;;;20.70;93.80;;;;;;6248459;23;20000;-87
2021/07/31 00:52:01;;;;;;;12.10;10.88;;;20.70;93.80;;;;;;6222167;23;20023;-86
2021/07/31 00:54:28;;;;;;;13.68;11.02;;;20.70;94.00;;;;;;6248432;23;19993;-87
2021/07/31 00:56:54;;;;;;;13.75;12.10;;;20.70;94.10;;;;;;6221692;23;20306;-87
2021/07/31 00:59:20;;;;;;;13.88;12.35;;;20.70;94.10;;;;;;6221513;23;20007;-87
2021/07/31 01:01:46;;;;;;;12.23;10.82;;;20.60;94.20;;;;;;6221531;23;20106;-87
2021/07/31 01:04:12;;;;;;;17.65;11.80;;;20.60;94.30;;;;;;6248370;23;20004;-88
2021/07/31 01:06:38;;;;;;;12.23;10.98;;;20.60;94.40;;;;;;6221617;23;20320;-87
2021/07/31 01:09:04;;;;;;;16.50;11.98;;;20.60;94.50;;;;;;6221435;23;20016;-87
2021/07/31 01:11:33;;;;;;;14.23;11.18;;;20.50;94.50;;;;;;6248219;23;19996;-88
2021/07/31 01:13:59;;;;;;;15.50;11.63;;;20.50;94.60;;;;;;6221611;23;20000;-88
2021/07/31 01:16:25;;;;;;;11.68;10.45;;;20.50;94.60;;;;;;6221696;23;20000;-87
2021/07/31 01:18:51;;;;;;;13.13;10.77;;;20.50;94.60;;;;;;6246434;22;20046;-86
2021/07/31 01:21:49;;;;;;;12.90;11.27;;;20.50;94.70;;;;;;6219659;23;20075;-87
2021/07/31 01:24:16;;;;;;;13.52;10.85;;;20.40;94.80;;;;;;6213726;23;20000;-87
2021/07/31 01:26:46;;;;;;;13.60;11.10;;;20.40;94.70;;;;;;6221676;23;20323;-87
2021/07/31 01:29:14;;;;;;;13.25;10.98;;;20.40;94.80;;;;;;6221435;23;20095;-87
2021/07/31 01:31:41;;;;;;;11.73;10.52;;;20.40;94.90;;;;;;6221998;23;20328;-87
2021/07/31 01:34:07;;;;;;;13.73;11.52;;;20.30;94.90;;;;;;6248048;23;20004;-87
2021/07/31 01:36:33;;;;;;;14.07;12.15;;;20.30;95.00;;;;;;6221314;23;20447;-87
2021/07/31 01:39:00;;;;;;;13.27;10.70;;;20.30;95.00;;;;;;6221212;23;20008;-87
2021/07/31 01:41:26;;;;;;;13.30;10.55;;;20.30;95.10;;;;;;6220772;23;20075;-87
2021/07/31 01:43:52;;;;;;;12.65;11.27;;;20.30;95.10;;;;;;6221276;23;20056;-88
2021/07/31 01:46:19;;;;;;;15.70;11.38;;;20.30;95.20;;;;;;6221531;23;20000;-87
2021/07/31 01:48:45;;;;;;;11.60;10.00;;;20.20;95.20;;;;;;6221277;23;20016;-87
2021/07/31 01:51:11;;;;;;;13.02;10.32;;;20.20;95.20;;;;;;6248168;23;20000;-87
2021/07/31 01:53:37;;;;;;;11.00;9.63;;;20.20;95.20;;;;;;6221174;23;20027;-87
2021/07/31 01:56:03;;;;;;;11.25;9.70;;;20.20;95.30;;;;;;6221177;23;20027;-87
2021/07/31 01:58:29;;;;;;;12.13;10.30;;;20.20;95.30;;;;;;6247656;23;20000;-87
2021/07/31 02:00:56;;;;;;;11.07;9.82;;;20.20;95.30;;;;;;6220926;23;20026;-87
2021/07/31 02:03:22;;;;;;;11.70;9.93;;;20.20;95.30;;;;;;6247822;23;20000;-87
2021/07/31 02:05:48;;;;;;;11.77;10.55;;;20.20;95.30;;;;;;6221094;23;20004;-87
2021/07/31 02:08:13;;;;;;;13.05;11.20;;;20.10;95.40;;;;;;6247375;22;20097;-87
2021/07/31 02:10:39;;;;;;;11.10;9.60;;;20.10;95.50;;;;;;6220725;23;20070;-87
2021/07/31 02:13:05;;;;;;;10.52;9.10;;;20.10;95.50;;;;;;6221039;23;20083;-88
2021/07/31 02:15:31;;;;;;;12.63;10.57;;;20.10;95.50;;;;;;6221067;23;20000;-87
2021/07/31 02:17:57;;;;;;;14.63;12.38;;;20.10;95.60;;;;;;6245957;22;20012;-87
2021/07/31 02:20:23;;;;;;;13.52;11.15;;;20.00;95.70;;;;;;6220990;23;20000;-87
2021/07/31 02:22:50;;;;;;;11.55;10.35;;;20.00;95.80;;;;;;6220687;23;20000;-87
2021/07/31 02:25:16;;;;;;;13.50;10.73;;;20.00;95.80;;;;;;6247459;23;20039;-87
2021/07/31 02:27:43;;;;;;;12.60;10.82;;;20.00;95.80;;;;;;6220636;23;20008;-87
2021/07/31 02:30:09;;;;;;;14.30;9.82;;;20.00;95.90;;;;;;6220847;23;20428;-88
2021/07/31 02:32:35;;;;;;;11.70;10.38;;;20.00;95.90;;;;;;6220955;23;20004;-87
2021/07/31 02:35:01;;;;;;;10.77;9.68;;;20.00;96.00;;;;;;6220829;23;20008;-87
2021/07/31 02:37:27;;;;;;;11.23;10.05;;;20.00;96.00;;;;;;6220711;23;20008;-87
2021/07/31 02:39:52;;;;;;;11.27;9.25;;;20.00;96.00;;;;;;6220866;23;20092;-87
2021/07/31 02:42:18;;;;;;;10.35;8.70;;;20.00;96.00;;;;;;6220660;23;20004;-87
2021/07/31 02:44:44;;;;;;;11.48;10.27;;;20.00;96.00;;;;;;6220688;23;20079;-88
2021/07/31 02:47:09;;;;;;;11.57;9.40;;;20.00;96.00;;;;;;6220847;23;20075;-87
2021/07/31 02:49:35;;;;;;;10.50;8.60;;;20.00;96.00;;;;;;6220567;23;20012;-87
2021/07/31 02:52:01;;;;;;;11.65;10.20;;;20.00;95.90;;;;;;6220823;23;20032;-87
2021/07/31 02:54:27;;;;;;;10.38;9.35;;;20.00;96.00;;;;;;6220691;23;20011;-87
2021/07/31 02:56:53;;;;;;;11.05;9.00;;;20.00;95.90;;;;;;6247312;23;20067;-87
2021/07/31 02:59:18;;;;;;;10.82;9.73;;;20.10;96.00;;;;;;6221244;23;20039;-87
2021/07/31 03:01:44;;;;;;;11.20;9.43;;;20.00;96.00;;;;;;6220623;23;20004;-87
2021/07/31 03:04:09;;;;;;;10.15;9.15;;;20.00;96.00;;;;;;6220648;23;20054;-87
2021/07/31 03:06:35;;;;;;;14.13;10.25;;;20.00;96.00;;;;;;6220552;23;19996;-87
2021/07/31 03:09:01;;;;;;;12.02;9.52;;;20.00;96.10;;;;;;6220314;23;20015;-87
2021/07/31 03:11:27;;;;;;;10.82;9.57;;;20.10;96.10;;;;;;6220360;23;20419;-87
2021/07/31 03:13:52;;;;;;;11.23;9.95;;;20.10;96.10;;;;;;6220539;23;20004;-87
2021/07/31 03:16:18;;;;;;;11.45;10.25;;;20.10;96.10;;;;;;6220392;23;20000;-87
2021/07/31 03:18:43;;;;;;;13.75;12.23;;;20.10;96.10;;;;;;6219988;23;20359;-87
2021/07/31 03:21:11;;;;;;;11.40;10.18;;;20.20;96.10;;;;;;6220505;23;20320;-87
2021/07/31 03:23:37;;;;;;;14.10;10.98;;;20.20;96.00;;;;;;6246581;23;20030;-87
2021/07/31 03:26:03;;;;;;;13.57;11.48;;;20.20;96.00;;;;;;6245666;23;20320;-87
2021/07/31 03:28:30;;;;;;;11.73;10.52;;;20.30;95.90;;;;;;6220215;23;20008;-87
2021/07/31 03:30:57;;;;;;;11.20;8.88;;;20.30;95.80;;;;;;6220196;23;20039;-87
2021/07/31 03:33:23;;;;;;;11.25;9.55;;;20.30;95.70;;;;;;6220212;23;20004;-87
2021/07/31 03:35:51;;;;;;;10.02;8.88;;;20.40;95.60;;;;;;6247252;23;19992;-87
2021/07/31 03:38:17;;;;;;;10.05;9.02;;;20.50;95.50;;;;;;6219995;23;20039;-88
2021/07/31 03:40:43;;;;;;;10.82;9.70;;;20.60;95.50;;;;;;6221335;23;20419;-87
2021/07/31 03:43:09;;;;;;;11.75;9.90;;;20.60;95.30;;;;;;6246520;23;20039;-87
2021/07/31 03:45:35;;;;;;;9.50;8.35;;;20.70;95.10;;;;;;6220722;23;20134;-87
2021/07/31 03:48:00;;;;;;;10.15;8.20;;;20.80;95.00;;;;;;6220165;23;20019;-87
2021/07/31 03:50:26;;;;;;;8.98;8.07;;;20.90;94.90;;;;;;6220233;23;20054;-87
2021/07/31 03:52:52;;;;;;;9.02;8.13;;;21.00;94.70;;;;;;6220292;23;20058;-87
2021/07/31 03:55:17;;;;;;;9.18;7.90;;;21.10;94.70;;;;;;6220094;23;20031;-87
2021/07/31 03:57:43;;;;;;;9.32;8.40;;;21.10;94.30;;;;;;6220228;23;20480;-87
2021/07/31 04:00:09;;;;;;;9.75;8.02;;;21.20;94.10;;;;;;6220948;23;20328;-87
2021/07/31 04:02:35;;;;;;;8.35;7.47;;;21.30;93.90;;;;;;6246949;23;20297;-87
2021/07/31 04:05:00;;;;;;;10.93;8.85;;;21.40;93.80;;;;;;6220009;23;20054;-87
2021/07/31 04:07:26;;;;;;;9.40;8.32;;;21.50;93.50;;;;;;6220003;23;20335;-87
2021/07/31 04:09:52;;;;;;;10.30;8.23;;;21.50;93.30;;;;;;6219694;23;20012;-88
2021/07/31 04:12:18;;;;;;;8.10;7.30;;;21.60;93.20;;;;;;6219993;23;20032;-87
2021/07/31 04:14:44;;;;;;;10.38;8.27;;;21.70;93.10;;;;;;6220018;23;20289;-87
2021/07/31 04:17:11;;;;;;;10.55;8.13;;;21.80;93.20;;;;;;6219789;23;20082;-87
2021/07/31 04:19:38;;;;;;;9.48;7.75;;;21.90;92.80;;;;;;6219694;23;20020;-87
2021/07/31 04:22:04;;;;;;;8.88;7.63;;;22.00;92.60;;;;;;6246650;23;20023;-88
2021/07/31 04:24:29;;;;;;;8.98;8.07;;;22.10;92.50;;;;;;6246456;23;20415;-88
2021/07/31 04:26:55;;;;;;;8.65;7.75;;;22.20;92.20;;;;;;6246670;23;20009;-87
2021/07/31 04:29:21;;;;;;;8.38;7.30;;;22.30;92.00;;;;;;6220607;23;20065;-87
2021/07/31 04:31:48;;;;;;;8.68;7.15;;;22.40;91.80;;;;;;6221497;23;20011;-87
2021/07/31 04:34:14;;;;;;;7.43;6.60;;;22.50;91.50;;;;;;6247188;23;20004;-87
2021/07/31 04:36:40;;;;;;;8.30;7.40;;;22.60;91.10;;;;;;6221581;23;20000;-88
2021/07/31 04:39:06;;;;;;;7.13;6.43;;;22.70;90.80;;;;;;6222132;23;20051;-88
2021/07/31 04:41:32;;;;;;;7.80;7.00;;;22.80;90.70;;;;;;6222152;23;20007;-87
2021/07/31 04:43:58;;;;;;;8.88;7.70;;;22.90;90.40;;;;;;6221781;23;20057;-87
2021/07/31 04:46:24;;;;;;;9.82;7.53;;;22.90;90.00;;;;;;6222125;23;20007;-87
2021/07/31 04:48:50;;;;;;;8.43;7.38;;;23.00;89.60;;;;;;6221560;23;20008;-87
2021/07/31 04:51:16;;;;;;;9.13;8.05;;;23.10;89.40;;;;;;6221487;23;20556;-87
2021/07/31 04:53:42;;;;;;;9.35;7.22;;;23.20;89.00;;;;;;6221418;23;20083;-87
2021/07/31 04:56:08;;;;;;;8.07;6.88;;;23.30;88.90;;;;;;6221348;23;20459;-87
2021/07/31 04:58:34;;;;;;;7.43;6.72;;;23.40;88.70;;;;;;6221446;23;20078;-87
2021/07/31 05:00:59;;;;;;;7.85;7.05;;;23.50;88.10;;;;;;6248374;23;20065;-87
2021/07/31 05:03:29;;;;;;;11.23;6.80;;;23.60;87.80;;;;;;6221481;23;20051;-87
2021/07/31 05:05:55;;;;;;;7.15;6.47;;;23.70;87.40;;;;;;6248588;23;19996;-88
2021/07/31 05:08:21;;;;;;;6.90;6.18;;;23.80;87.00;;;;;;6221451;22;20004;-87
2021/07/31 05:10:48;;;;;;;7.60;6.80;;;24.00;86.60;;;;;;6221528;23;20000;-87
2021/07/31 05:13:15;;;;;;;7.28;6.43;;;24.10;86.10;;;;;;6248002;23;20024;-87
2021/07/31 05:15:42;;;;;;;7.45;6.75;;;24.20;85.40;;;;;;6221123;23;20001;-87
2021/07/31 05:18:08;;;;;;;7.32;6.43;;;24.30;84.10;;;;;;6247452;22;20432;-87
2021/07/31 05:20:38;;;;;;;7.30;6.60;;;24.40;83.50;;;;;;6221153;23;20435;-87
2021/07/31 05:23:04;;;;;;;8.48;6.18;;;24.60;83.60;;;;;;6221408;23;20020;-87
2021/07/31 05:25:30;;;;;;;7.82;6.70;;;24.70;83.50;;;;;;6220962;23;20058;-87
2021/07/31 05:27:56;;;;;;;7.38;5.82;;;24.90;83.10;;;;;;6221148;23;20092;-87
2021/07/31 05:30:22;;;;;;;6.65;5.95;;;25.00;82.70;;;;;;6221358;23;20004;-87
2021/07/31 05:32:48;;;;;;;6.35;5.75;;;25.20;82.10;;;;;;6221173;23;19996;-87
2021/07/31 05:35:14;;;;;;;7.32;6.53;;;25.30;80.80;;;;;;6220386;23;20082;-87
2021/07/31 05:37:39;;;;;;;7.45;6.60;;;25.40;79.80;;;;;;6220883;23;20016;-87
2021/07/31 05:40:06;;;;;;;6.78;6.00;;;25.50;79.20;;;;;;6221111;23;20000;-87
2021/07/31 05:42:31;;;;;;;7.85;7.05;;;25.50;78.20;;;;;;6220442;23;20007;-87
2021/07/31 05:45:01;;;;;;;7.50;6.03;;;25.60;77.80;;;;;;6220943;23;20320;-87
2021/07/31 05:47:28;;;;;;;7.40;6.43;;;25.70;77.20;;;;;;6221023;23;20402;-89
2021/07/31 05:49:55;;;;;;;7.55;6.50;;;25.80;76.40;;;;;;6220821;23;20024;-87
2021/07/31 05:52:25;;;;;;;7.00;6.30;;;25.90;75.60;;;;;;6220737;23;20027;-87
2021/07/31 05:54:51;;;;;;;9.70;6.68;;;26.00;75.40;;;;;;6221065;23;20004;-87
2021/07/31 05:57:17;;;;;;;7.82;6.45;;;26.10;74.30;;;;;;6220730;23;20008;-87
2021/07/31 05:59:43;;;;;;;7.10;6.40;;;26.20;73.70;;;;;;6247649;23;20000;-87
2021/07/31 06:02:10;;;;;;;6.60;5.90;;;26.20;73.80;;;;;;6220655;23;20000;-87
2021/07/31 06:04:36;;;;;;;6.03;5.43;;;26.40;74.40;;;;;;6220357;23;20087;-87
2021/07/31 06:07:05;;;;;;;6.60;5.95;;;26.50;73.60;;;;;;6220587;23;20000;-87
2021/07/31 06:09:31;;;;;;;8.23;6.25;;;26.60;72.80;;;;;;6247254;22;20008;-87
2021/07/31 06:11:57;;;;;;;7.20;6.50;;;26.70;72.40;;;;;;6220596;23;20008;-86
2021/07/31 06:14:22;;;;;;;6.95;6.25;;;26.70;72.20;;;;;;6220624;23;20031;-87
2021/07/31 06:16:48;;;;;;;6.70;6.05;;;26.80;72.10;;;;;;6220469;23;19996;-87
2021/07/31 06:19:14;;;;;;;6.43;5.72;;;26.90;72.40;;;;;;6220471;23;20408;-87
2021/07/31 06:21:40;;;;;;;7.00;6.30;;;27.00;72.40;;;;;;6247188;23;20000;-86
2021/07/31 06:24:05;;;;;;;7.68;6.97;;;27.10;72.20;;;;;;6220018;23;20007;-86
2021/07/31 06:26:31;;;;;;;8.90;7.78;;;27.20;72.10;;;;;;6220535;23;19996;-87
2021/07/31 06:28:57;;;;;;;7.18;6.47;;;27.30;71.80;;;;;;6220189;23;20375;-87
2021/07/31 06:31:22;;;;;;;7.32;6.63;;;27.40;71.80;;;;;;6220036;23;20012;-87
2021/07/31 06:33:48;;;;;;;8.43;6.53;;;27.50;72.00;;;;;;6220223;23;20449;-87
2021/07/31 06:36:19;;;;;;;7.20;6.50;;;27.60;71.50;;;;;;6245980;23;20005;-87
2021/07/31 06:38:45;;;;;;;7.15;6.50;;;27.70;70.80;;;;;;6220756;23;20012;-87
2021/07/31 06:41:11;;;;;;;7.75;6.40;;;27.80;70.60;;;;;;6220340;23;20004;-87
2021/07/31 06:43:36;;;;;;;7.25;6.55;;;27.90;70.30;;;;;;6220442;23;20008;-87
2021/07/31 06:46:12;;;;;;;7.60;6.82;;;27.90;69.80;;;;;;6220790;23;20000;-87
2021/07/31 06:48:38;;;;;;;10.65;7.20;;;28.00;67.10;;;;;;6219918;23;20008;-87
2021/07/31 06:51:04;;;;;;;8.10;7.30;;;28.10;68.90;;;;;;6220114;23;19996;-87
2021/07/31 06:53:30;;;;;;;6.47;5.88;;;28.10;68.60;;;;;;6220212;23;20345;-88
2021/07/31 06:56:02;;;;;;;6.90;6.30;;;28.10;68.80;;;;;;6220075;23;20004;-88
2021/07/31 06:58:29;;;;;;;6.53;5.82;;;28.20;68.50;;;;;;6246054;23;20026;-88
2021/07/31 07:00:55;;;;;;;6.72;6.03;;;28.30;68.60;;;;;;6220139;23;20000;-87
2021/07/31 07:03:20;;;;;;;6.53;5.93;;;28.30;68.50;;;;;;6219378;23;20023;-87
2021/07/31 07:05:46;;;;;;;6.70;6.00;;;28.50;68.30;;;;;;6219233;23;20007;-88
2021/07/31 07:08:12;;;;;;;7.53;6.10;;;28.60;67.80;;;;;;6218897;23;20008;-87
2021/07/31 07:10:38;;;;;;;8.90;6.05;;;28.70;67.50;;;;;;6219314;23;20376;-87
2021/07/31 07:13:04;;;;;;;7.15;6.45;;;28.70;67.00;;;;;;6219727;23;20075;-87
2021/07/31 07:15:30;;;;;;;7.45;6.55;;;28.80;67.10;;;;;;6219649;23;20035;-87
2021/07/31 07:17:57;;;;;;;7.13;6.43;;;28.90;67.10;;;;;;6220178;22;20007;-87
2021/07/31 07:20:23;;;;;;;6.72;6.13;;;28.90;66.60;;;;;;6219876;23;20004;-87
2021/07/31 07:22:49;;;;;;;5.95;5.38;;;29.00;66.40;;;;;;6246820;23;20000;-87
2021/07/31 07:25:15;;;;;;;6.35;5.75;;;29.10;66.20;;;;;;6219919;23;20065;-88
2021/07/31 07:27:41;;;;;;;5.60;5.10;;;29.20;66.00;;;;;;6219814;23;20007;-88
2021/07/31 07:30:07;;;;;;;6.88;6.20;;;29.30;65.60;;;;;;6220168;23;20427;-87
2021/07/31 07:32:37;;;;;;;6.85;6.15;;;29.40;65.00;;;;;;6219805;23;19997;-87
2021/07/31 07:35:04;;;;;;;8.60;5.72;;;29.50;64.50;;;;;;6220077;23;20015;-87
2021/07/31 07:37:30;;;;;;;5.90;5.38;;;29.50;64.30;;;;;;6246377;23;20473;-87
2021/07/31 07:39:55;;;;;;;5.95;5.35;;;29.50;64.10;;;;;;6219263;23;20004;-87
2021/07/31 07:42:21;;;;;;;5.85;5.32;;;29.60;64.10;;;;;;6219138;23;20008;-87
2021/07/31 07:44:47;;;;;;;5.65;5.05;;;29.70;63.70;;;;;;6219471;23;20004;-87
2021/07/31 07:47:12;;;;;;;6.38;5.78;;;29.80;63.60;;;;;;6246212;23;20035;-87
2021/07/31 07:49:38;;;;;;;6.15;5.55;;;29.80;62.60;;;;;;6219477;23;20008;-87
2021/07/31 07:52:04;;;;;;;6.13;5.25;;;29.80;62.70;;;;;;6219842;23;20023;-87
2021/07/31 07:54:30;;;;;;;5.35;4.85;;;29.90;62.60;;;;;;6219039;23;19997;-87
2021/07/31 07:56:57;;;;;;;5.18;4.68;;;30.00;61.40;;;;;;6219480;23;20000;-87
2021/07/31 07:59:23;;;;;;;4.80;4.40;;;30.00;61.00;;;;;;6219560;23;20087;-87
2021/07/31 08:01:49;;;;;;;4.50;4.10;;;30.10;60.80;;;;;;6220440;23;20028;-87
2021/07/31 08:04:14;;;;;;;4.65;4.25;;;30.20;60.40;;;;;;6219535;23;20054;-87
2021/07/31 08:06:40;;;;;;;4.80;4.30;;;30.20;60.40;;;;;;6221425;23;20083;-87
2021/07/31 08:09:06;;;;;;;9.05;5.75;;;30.30;60.10;;;;;;6221103;23;20008;-88
2021/07/31 08:11:32;;;;;;;6.53;5.93;;;30.40;60.50;;;;;;6248251;23;19996;-87
2021/07/31 08:13:59;;;;;;;6.40;5.80;;;30.50;61.10;;;;;;6221713;23;20027;-87
2021/07/31 08:16:24;;;;;;;7.18;6.55;;;30.50;61.60;;;;;;6221492;23;19996;-87
2021/07/31 08:18:51;;;;;;;6.07;5.55;;;30.50;61.80;;;;;;6221188;23;20016;-88
2021/07/31 08:21:16;;;;;;;6.97;6.30;;;30.50;61.80;;;;;;6221664;23;20007;-87
2021/07/31 08:23:43;;;;;;;8.35;7.07;;;30.50;61.80;;;;;;6221230;23;19996;-87
2021/07/31 08:26:12;;;;;;;6.57;5.63;;;30.60;61.90;;;;;;6221242;23;20301;-87
2021/07/31 08:28:47;;;;;;;7.93;6.00;;;30.60;61.80;;;;;;6221041;23;20035;-87
2021/07/31 08:31:14;;;;;;;6.22;5.63;;;30.60;61.80;;;;;;6248019;23;19996;-87
2021/07/31 08:33:40;;;;;;;8.60;7.80;;;30.70;61.70;;;;;;6247767;23;20003;-87
2021/07/31 08:36:07;;;;;;;8.75;7.35;;;30.70;61.50;;;;;;6247588;23;20007;-87
2021/07/31 08:38:33;;;;;;;8.18;7.40;;;30.60;61.40;;;;;;6221099;23;20005;-87
2021/07/31 08:40:59;;;;;;;6.95;6.30;;;30.50;61.70;;;;;;6220849;23;20131;-88
2021/07/31 08:43:25;;;;;;;7.25;6.55;;;30.40;61.80;;;;;;6247876;23;20004;-88
2021/07/31 08:45:52;;;;;;;6.20;5.60;;;30.50;62.00;;;;;;6221131;23;20000;-87
2021/07/31 08:48:19;;;;;;;6.57;6.00;;;30.50;61.90;;;;;;6247949;23;20008;-87
2021/07/31 08:50:46;;;;;;;6.50;5.90;;;30.60;61.70;;;;;;6220547;23;20046;-87
2021/07/31 08:53:12;;;;;;;7.30;5.97;;;30.70;61.40;;;;;;6220969;23;19997;-87
2021/07/31 08:55:40;;;;;;;6.53;5.93;;;30.80;61.20;;;;;;6220684;23;20003;-86
2021/07/31 08:58:05;;;;;;;7.50;6.82;;;30.80;61.40;;;;;;6220975;23;20003;-87
2021/07/31 09:00:34;;;;;;;5.80;5.30;;;30.90;60.90;;;;;;6220499;23;20581;-89
2021/07/31 09:06:44;;;;;;;5.30;4.80;;;30.90;60.10;;;;;;6131798;23;20016;-91
2021/07/31 09:10:16;;;;;;;;;;;;;;;;;;;;;
2021/07/31 09:13:28;;;;;;;;;;;;;;;;;;;;;
2021/07/31 09:27:14;;;;;;;5.95;4.78;;;31.00;58.50;;;;;;6063576;23;20021;-91
2021/07/31 09:34:09;;;;;;;;;;;;;;;;;;;;;
2021/07/31 09:37:16;;;;;;;;;;;;;;;;;;;;;
2021/07/31 10:17:33;;;;;;;;;;;;;;;;;;;;;
2021/07/31 10:24:45;;;;;;;;;;;;;;;;;;;;;
2021/07/31 10:27:34;;;;;;;4.20;3.80;;;31.80;54.60;;;;;;5726297;24;20057;-90
2021/07/31 10:34:29;;;;;;;4.53;4.13;;;31.80;54.00;;;;;;5903333;24;20127;-91
2021/07/31 10:37:51;;;;;;;;;;;;;;;;;;;;;
2021/07/31 10:44:17;;;;;;;4.30;3.90;;;31.70;52.70;;;;;;5898120;24;20005;-90
2021/07/31 10:47:08;;;;;;;4.03;3.70;;;31.80;53.50;;;;;;5900126;24;20061;-90
2021/07/31 10:54:22;;;;;;;3.30;3.03;;;32.00;53.50;;;;;;5876993;24;20022;-91
2021/07/31 10:56:57;;;;;;;3.92;3.35;;;32.30;53.30;;;;;;5897910;24;20008;-92
2021/07/31 11:03:36;;;;;;;;;;;32.50;51.80;;;;;;5946790;24;20013;-92
2021/07/31 11:09:47;;;;;;;;;;;;;;;;;;;;;
2021/07/31 11:12:42;;;;;;;3.70;3.40;;;32.50;52.30;;;;;;6126575;23;20085;-92
2021/07/31 11:15:41;;;;;;;4.35;3.90;;;32.50;52.70;;;;;;6125662;23;20001;-90
2021/07/31 11:18:09;;;;;;;3.85;3.55;;;32.50;52.60;;;;;;6126129;23;20005;-91
2021/07/31 11:20:39;;;;;;;3.80;3.50;;;32.50;52.60;;;;;;6222061;22;20023;-89
2021/07/31 11:23:07;;;;;;;3.85;3.50;;;32.40;52.60;;;;;;6250375;22;20012;-90
2021/07/31 11:25:37;;;;;;;4.00;3.67;;;32.30;52.80;;;;;;6230007;23;20016;-89
2021/07/31 11:28:08;;;;;;;4.30;3.90;;;32.30;52.80;;;;;;6241585;23;20008;-88
2021/07/31 11:30:47;;;;;;;4.38;3.85;;;32.20;52.80;;;;;;6220119;23;20001;-89
2021/07/31 11:33:33;;;;;;;4.13;3.75;;;32.20;52.70;;;;;;6247111;23;20002;-90
2021/07/31 11:36:14;;;;;;;4.55;4.07;;;32.20;52.30;;;;;;6221283;23;20031;-89
2021/07/31 11:38:49;;;;;;;4.28;3.88;;;32.10;52.80;;;;;;6247230;23;20008;-90
2021/07/31 11:41:25;;;;;;;3.85;3.53;;;32.10;52.90;;;;;;6222176;23;20103;-89
2021/07/31 11:44:06;;;;;;;4.55;4.15;;;32.10;52.80;;;;;;6198637;23;20031;-89
2021/07/31 11:46:53;;;;;;;5.93;3.88;;;32.20;52.70;;;;;;6223348;23;20004;-89
2021/07/31 11:49:30;;;;;;;3.70;3.40;;;32.30;52.10;;;;;;6222191;23;20091;-89
2021/07/31 11:52:05;;;;;;;5.25;3.92;;;32.30;51.90;;;;;;6221684;23;20004;-89
2021/07/31 11:54:35;;;;;;;3.70;3.40;;;32.50;51.90;;;;;;6221913;23;20000;-89
2021/07/31 11:57:10;;;;;;;5.07;4.47;;;32.60;51.80;;;;;;6222322;23;20007;-90
2021/07/31 11:59:42;;;;;;;5.72;3.60;;;32.70;51.70;;;;;;6223150;23;20008;-92
2021/07/31 12:02:12;;;;;;;5.10;3.88;;;32.80;51.60;;;;;;6216006;23;20051;-91
2021/07/31 12:04:59;;;;;;;4.30;3.90;;;32.80;51.60;;;;;;6217096;23;20011;-89
2021/07/31 12:07:28;;;;;;;4.50;3.95;;;32.80;51.40;;;;;;6221256;23;20408;-90
2021/07/31 12:10:08;;;;;;;4.22;3.83;;;32.70;51.40;;;;;;6248007;22;20012;-91
2021/07/31 12:12:41;;;;;;;4.47;4.07;;;32.80;51.30;;;;;;6247470;23;19996;-92
2021/07/31 12:15:20;;;;;;;4.45;3.83;;;33.00;51.20;;;;;;6221764;23;20308;-91
2021/07/31 12:18:05;;;;;;;4.53;3.97;;;33.10;49.50;;;;;;6222180;23;20087;-90
2021/07/31 12:20:41;;;;;;;6.00;3.67;;;33.20;50.40;;;;;;6222509;23;20000;-89
2021/07/31 12:23:08;;;;;;;5.50;3.22;;;33.40;49.70;;;;;;6221826;23;20000;-90
2021/07/31 12:25:35;;;;;;;4.28;3.88;;;33.70;49.90;;;;;;6241818;22;20047;-91
2021/07/31 12:28:15;;;;;;;4.22;3.83;;;34.10;49.30;;;;;;6278623;22;20008;-90
2021/07/31 12:30:44;;;;;;;3.85;3.55;;;34.40;49.10;;;;;;6252821;22;20011;-91
2021/07/31 12:33:17;;;;;;;4.22;3.78;;;34.80;48.80;;;;;;6252746;22;20000;-92
2021/07/31 12:35:53;;;;;;;3.60;3.30;;;35.10;48.30;;;;;;6252454;22;20019;-91
2021/07/31 12:38:21;;;;;;;4.05;3.75;;;35.30;47.90;;;;;;6253111;22;20000;-91
2021/07/31 12:40:54;;;;;;;4.05;3.65;;;35.50;48.30;;;;;;6253332;22;20323;-91
2021/07/31 12:43:21;;;;;;;3.78;3.47;;;35.80;48.50;;;;;;6280262;22;20051;-92
2021/07/31 12:46:04;;;;;;;5.55;4.25;;;36.20;48.10;;;;;;6253083;22;20006;-92
2021/07/31 12:48:31;;;;;;;4.53;3.83;;;36.50;47.40;;;;;;6279889;22;20007;-91
2021/07/31 12:50:58;;;;;;;4.38;3.97;;;36.80;46.80;;;;;;6280920;22;20090;-91
2021/07/31 12:53:25;;;;;;;4.18;3.80;;;37.10;46.50;;;;;;6253784;22;20003;-92
2021/07/31 12:55:55;;;;;;;4.72;3.70;;;37.30;46.20;;;;;;6252876;22;20414;-92
2021/07/31 12:58:22;;;;;;;4.10;3.80;;;37.60;45.70;;;;;;6253764;22;20043;-91
2021/07/31 13:00:48;;;;;;;3.90;3.60;;;37.80;45.20;;;;;;6279452;22;20057;-91
2021/07/31 13:03:16;;;;;;;3.60;3.30;;;38.10;44.80;;;;;;6253389;22;19999;-91
2021/07/31 13:05:42;;;;;;;4.18;3.80;;;38.30;44.80;;;;;;6280563;22;20006;-93
2021/07/31 13:08:09;;;;;;;3.78;3.47;;;38.60;44.30;;;;;;6253013;22;20011;-91
2021/07/31 13:10:36;;;;;;;3.67;3.38;;;38.90;44.30;;;;;;6252762;22;20003;-92
2021/07/31 13:13:06;;;;;;;3.65;3.35;;;39.20;43.80;;;;;;6257188;22;20006;-92
2021/07/31 13:15:36;;;;;;;3.53;3.22;;;39.40;43.10;;;;;;6256447;22;20003;-91
2021/07/31 13:18:02;;;;;;;4.60;3.72;;;39.50;42.80;;;;;;6252722;22;20011;-91
2021/07/31 13:20:28;;;;;;;4.00;3.70;;;39.60;42.70;;;;;;6253754;22;20091;-90
2021/07/31 13:22:54;;;;;;;4.05;3.65;;;39.70;42.40;;;;;;6254821;22;20011;-90
2021/07/31 13:25:20;;;;;;;4.50;4.00;;;39.80;41.60;;;;;;6256011;22;20424;-91
2021/07/31 13:27:46;;;;;;;4.70;4.30;;;39.80;41.50;;;;;;6254533;22;20000;-91
2021/07/31 13:30:12;;;;;;;4.20;3.80;;;39.60;41.20;;;;;;6255739;22;20050;-91
2021/07/31 13:32:48;;;;;;;4.63;4.22;;;39.40;41.50;;;;;;6255751;22;20003;-91
2021/07/31 13:35:19;;;;;;;6.05;4.47;;;39.40;39.90;;;;;;6254031;22;20386;-91
2021/07/31 13:37:49;;;;;;;4.90;4.40;;;39.30;41.30;;;;;;6254198;22;20003;-92
2021/07/31 13:40:22;;;;;;;4.25;3.92;;;39.30;41.40;;;;;;6256380;22;20057;-91
2021/07/31 13:42:51;;;;;;;3.95;3.65;;;39.30;41.10;;;;;;6282284;22;20014;-92
2021/07/31 13:45:18;;;;;;;3.72;3.42;;;39.30;41.50;;;;;;6282884;22;20034;-92
2021/07/31 13:47:44;;;;;;;3.40;3.17;;;39.60;41.40;;;;;;6257373;22;19996;-92
2021/07/31 13:50:12;;;;;;;6.03;4.47;;;39.90;41.10;;;;;;6252776;22;20004;-92
2021/07/31 13:52:39;;;;;;;3.95;3.58;;;40.20;40.70;;;;;;6252758;22;20088;-91
2021/07/31 13:55:09;;;;;;;;;;;40.40;40.40;;;;;;6283409;22;20011;-91
2021/07/31 13:57:41;;;;;;;2.97;2.78;;;40.40;40.20;;;;;;6281743;22;19957;-90
2021/07/31 14:00:08;;;;;;;3.65;3.35;;;40.60;40.40;;;;;;6230400;22;20007;-92
2021/07/31 14:02:36;;;;;;;5.65;3.92;;;40.80;40.20;;;;;;6255255;22;20023;-91
2021/07/31 14:05:03;;;;;;;3.97;3.60;;;41.00;39.90;;;;;;6230431;22;20037;-92
2021/07/31 14:07:34;;;;;;;3.80;3.50;;;41.10;39.50;;;;;;6254651;22;20002;-91
2021/07/31 14:10:07;;;;;;;3.53;3.22;;;41.20;39.40;;;;;;6256500;22;20003;-92
2021/07/31 14:12:33;;;;;;;4.28;3.80;;;41.30;39.00;;;;;;6256749;22;20021;-92
2021/07/31 14:15:00;;;;;;;3.63;3.33;;;41.50;39.10;;;;;;6230976;22;20358;-90
2021/07/31 14:17:28;;;;;;;4.13;3.72;;;41.50;38.90;;;;;;6253778;22;20007;-90
2021/07/31 14:19:53;;;;;;;3.55;3.25;;;41.50;38.60;;;;;;6253417;22;20427;-92